sensor_id;sensor_type;location;lat;lon;timestamp;pressure;altitude;pressure_sealevel;temperature;humidity
39435;BME280;66825;51.880;-0.518;2023-02-14T00:00:50;102211.66;;;15.64;40.51
39435;BME280;66825;51.880;-0.518;2023-02-14T00:03:16;102214.63;;;15.62;40.46
39435;BME280;66825;51.880;-0.518;2023-02-14T00:05:41;102225.72;;;15.61;40.68
39435;BME280;66825;51.880;-0.518;2023-02-14T00:08:07;102124.19;;;15.04;40.19
39435;BME280;66825;51.880;-0.518;2023-02-14T00:10:32;102216.75;;;15.60;40.28
39435;BME280;66825;51.880;-0.518;2023-02-14T00:12:58;102215.94;;;15.60;40.43
39435;BME280;66825;51.880;-0.518;2023-02-14T00:15:23;102215.09;;;15.59;40.33
39435;BME280;66825;51.880;-0.518;2023-02-14T00:17:51;102205.81;;;15.55;40.39
39435;BME280;66825;51.880;-0.518;2023-02-14T00:20:20;102216.41;;;15.56;40.62
39435;BME280;66825;51.880;-0.518;2023-02-14T00:22:45;102206.53;;;15.50;40.21
39435;BME280;66825;51.880;-0.518;2023-02-14T00:25:11;102214.78;;;15.55;40.54
39435;BME280;66825;51.880;-0.518;2023-02-14T00:27:38;102213.13;;;15.54;40.46
39435;BME280;66825;51.880;-0.518;2023-02-14T00:30:07;102202.50;;;15.53;40.66
39435;BME280;66825;51.880;-0.518;2023-02-14T00:32:35;102211.72;;;15.52;40.55
39435;BME280;66825;51.880;-0.518;2023-02-14T00:35:01;102211.72;;;15.52;40.58
39435;BME280;66825;51.880;-0.518;2023-02-14T00:37:26;102188.03;;;15.35;40.64
39435;BME280;66825;51.880;-0.518;2023-02-14T00:39:52;102212.78;;;15.51;40.48
39435;BME280;66825;51.880;-0.518;2023-02-14T00:42:17;102109.59;;;14.93;40.47
39435;BME280;66825;51.880;-0.518;2023-02-14T00:44:43;102188.16;;;15.40;40.40
39435;BME280;66825;51.880;-0.518;2023-02-14T00:47:08;102211.38;;;15.48;40.47
39435;BME280;66825;51.880;-0.518;2023-02-14T00:49:34;102194.50;;;15.46;40.93
39435;BME280;66825;51.880;-0.518;2023-02-14T00:51:59;102208.91;;;15.47;40.64
39435;BME280;66825;51.880;-0.518;2023-02-14T00:54:25;102200.16;;;15.45;40.29
39435;BME280;66825;51.880;-0.518;2023-02-14T00:56:50;102203.72;;;15.45;40.74
39435;BME280;66825;51.880;-0.518;2023-02-14T00:59:16;102191.34;;;15.37;40.57
39435;BME280;66825;51.880;-0.518;2023-02-14T01:01:41;102188.63;;;15.37;40.58
39435;BME280;66825;51.880;-0.518;2023-02-14T01:04:07;102205.00;;;15.43;40.61
39435;BME280;66825;51.880;-0.518;2023-02-14T01:06:32;102192.31;;;15.31;40.55
39435;BME280;66825;51.880;-0.518;2023-02-14T01:08:58;102191.59;;;15.36;40.39
39435;BME280;66825;51.880;-0.518;2023-02-14T01:11:24;102209.03;;;15.40;40.41
39435;BME280;66825;51.880;-0.518;2023-02-14T01:13:51;102207.38;;;15.39;40.68
39435;BME280;66825;51.880;-0.518;2023-02-14T01:16:20;102210.09;;;15.39;40.58
39435;BME280;66825;51.880;-0.518;2023-02-14T01:18:47;102173.22;;;15.26;40.54
39435;BME280;66825;51.880;-0.518;2023-02-14T01:23:40;102184.31;;;15.24;40.59
39435;BME280;66825;51.880;-0.518;2023-02-14T01:26:06;102188.88;;;15.36;40.45
39435;BME280;66825;51.880;-0.518;2023-02-14T01:28:33;102191.59;;;15.36;40.78
39435;BME280;66825;51.880;-0.518;2023-02-14T01:33:36;102194.56;;;15.34;40.60
39435;BME280;66825;51.880;-0.518;2023-02-14T01:36:02;102178.88;;;15.24;40.58
39435;BME280;66825;51.880;-0.518;2023-02-14T01:38:27;102188.53;;;15.32;40.81
39435;BME280;66825;51.880;-0.518;2023-02-14T01:40:53;102176.50;;;15.28;40.57
39435;BME280;66825;51.880;-0.518;2023-02-14T01:43:18;102183.25;;;15.25;40.64
39435;BME280;66825;51.880;-0.518;2023-02-14T01:45:44;102187.13;;;15.30;40.59
39435;BME280;66825;51.880;-0.518;2023-02-14T01:48:09;102091.50;;;14.70;40.71
39435;BME280;66825;51.880;-0.518;2023-02-14T01:50:37;102161.56;;;15.14;40.64
39435;BME280;66825;51.880;-0.518;2023-02-14T01:53:10;102187.34;;;15.28;40.65
39435;BME280;66825;51.880;-0.518;2023-02-14T01:55:43;102193.03;;;15.27;40.92
39435;BME280;66825;51.880;-0.518;2023-02-14T01:58:14;102176.31;;;15.18;40.39
39435;BME280;66825;51.880;-0.518;2023-02-14T02:00:42;102180.53;;;15.25;40.74
39435;BME280;66825;51.880;-0.518;2023-02-14T02:03:30;102196.81;;;15.25;40.60
39435;BME280;66825;51.880;-0.518;2023-02-14T02:06:06;102187.03;;;15.24;40.47
39435;BME280;66825;51.880;-0.518;2023-02-14T02:08:37;102188.94;;;15.24;40.46
39435;BME280;66825;51.880;-0.518;2023-02-14T02:11:04;102181.03;;;15.22;40.72
39435;BME280;66825;51.880;-0.518;2023-02-14T02:13:30;102162.41;;;15.14;40.86
39435;BME280;66825;51.880;-0.518;2023-02-14T02:16:12;102181.25;;;15.21;40.88
39435;BME280;66825;51.880;-0.518;2023-02-14T02:24:01;102176.31;;;15.18;40.51
39435;BME280;66825;51.880;-0.518;2023-02-14T02:43:53;102173.72;;;15.11;40.64
39435;BME280;66825;51.880;-0.518;2023-02-14T02:46:24;102165.59;;;15.11;40.55
39435;BME280;66825;51.880;-0.518;2023-02-14T02:52:30;102146.88;;;14.98;40.63
39435;BME280;66825;51.880;-0.518;2023-02-14T02:58:26;102154.13;;;15.09;40.76
39435;BME280;66825;51.880;-0.518;2023-02-14T03:00:55;102138.13;;;14.96;40.74
39435;BME280;66825;51.880;-0.518;2023-02-14T03:03:24;102178.00;;;15.07;40.87
39435;BME280;66825;51.880;-0.518;2023-02-14T03:06:10;102145.47;;;14.95;40.82
39435;BME280;66825;51.880;-0.518;2023-02-14T03:08:35;102152.72;;;15.06;40.89
39435;BME280;66825;51.880;-0.518;2023-02-14T03:11:01;102085.84;;;14.59;40.69
39435;BME280;66825;51.880;-0.518;2023-02-14T03:16:32;102155.69;;;15.05;40.81
39435;BME280;66825;51.880;-0.518;2023-02-14T03:27:46;102148.88;;;15.02;40.61
39435;BME280;66825;51.880;-0.518;2023-02-14T03:30:26;102125.78;;;14.88;40.54
39435;BME280;66825;51.880;-0.518;2023-02-14T03:33:15;102129.56;;;14.87;40.77
39435;BME280;66825;51.880;-0.518;2023-02-14T03:36:05;102134.28;;;14.91;40.75
39435;BME280;66825;51.880;-0.518;2023-02-14T03:39:30;102150.19;;;15.00;40.54
39435;BME280;66825;51.880;-0.518;2023-02-14T03:41:39;102151.84;;;15.01;40.51
39435;BME280;66825;51.880;-0.518;2023-02-14T03:44:08;102140.28;;;14.93;40.79
39435;BME280;66825;51.880;-0.518;2023-02-14T03:46:43;102132.25;;;14.99;40.60
39435;BME280;66825;51.880;-0.518;2023-02-14T03:49:14;102116.13;;;14.80;40.71
39435;BME280;66825;51.880;-0.518;2023-02-14T03:51:44;102143.34;;;14.97;40.78
39435;BME280;66825;51.880;-0.518;2023-02-14T03:54:12;102133.56;;;14.96;40.58
39435;BME280;66825;51.880;-0.518;2023-02-14T03:59:43;102140.84;;;14.96;40.88
39435;BME280;66825;51.880;-0.518;2023-02-14T04:02:16;102145.47;;;14.95;40.66
39435;BME280;66825;51.880;-0.518;2023-02-14T04:04:46;102050.97;;;14.39;40.69
39435;BME280;66825;51.880;-0.518;2023-02-14T04:07:17;102143.81;;;14.94;40.28
39435;BME280;66825;51.880;-0.518;2023-02-14T04:09:44;102149.25;;;14.94;40.70
39435;BME280;66825;51.880;-0.518;2023-02-14T04:12:10;102134.88;;;14.93;40.79
39435;BME280;66825;51.880;-0.518;2023-02-14T04:14:36;102138.63;;;14.92;40.79
39435;BME280;66825;51.880;-0.518;2023-02-14T04:17:02;102143.22;;;14.92;40.59
39435;BME280;66825;51.880;-0.518;2023-02-14T04:19:47;102126.03;;;14.86;40.58
39435;BME280;66825;51.880;-0.518;2023-02-14T04:22:12;102108.13;;;14.73;40.81
39435;BME280;66825;51.880;-0.518;2023-02-14T04:24:38;102128.16;;;14.84;40.65
39435;BME280;66825;51.880;-0.518;2023-02-14T04:27:04;102108.47;;;14.77;40.61
39435;BME280;66825;51.880;-0.518;2023-02-14T04:29:39;102120.81;;;14.85;40.86
39435;BME280;66825;51.880;-0.518;2023-02-14T04:32:05;102126.38;;;14.90;40.73
39435;BME280;66825;51.880;-0.518;2023-02-14T04:34:31;102135.25;;;14.85;40.49
39435;BME280;66825;51.880;-0.518;2023-02-14T04:36:56;102131.22;;;14.88;40.71
39435;BME280;66825;51.880;-0.518;2023-02-14T04:39:22;102127.66;;;14.87;40.96
39435;BME280;66825;51.880;-0.518;2023-02-14T04:41:47;102108.31;;;14.84;40.85
39435;BME280;66825;51.880;-0.518;2023-02-14T04:44:13;102126.03;;;14.86;41.16
39435;BME280;66825;51.880;-0.518;2023-02-14T04:46:38;102092.56;;;14.69;40.74
39435;BME280;66825;51.880;-0.518;2023-02-14T04:49:03;102121.66;;;14.85;40.86
39435;BME280;66825;51.880;-0.518;2023-02-14T04:51:29;102102.81;;;14.79;40.65
39435;BME280;66825;51.880;-0.518;2023-02-14T04:53:54;102104.53;;;14.85;40.64
39435;BME280;66825;51.880;-0.518;2023-02-14T04:56:20;102113.53;;;14.85;40.49
39435;BME280;66825;51.880;-0.518;2023-02-14T04:58:45;102116.47;;;14.84;40.47
39435;BME280;66825;51.880;-0.518;2023-02-14T05:01:11;102117.56;;;14.83;40.25
39435;BME280;66825;51.880;-0.518;2023-02-14T05:03:36;102115.31;;;14.80;40.73
39435;BME280;66825;51.880;-0.518;2023-02-14T05:06:02;102141.13;;;14.82;40.47
39435;BME280;66825;51.880;-0.518;2023-02-14T05:08:27;102126.75;;;14.82;40.59
39435;BME280;66825;51.880;-0.518;2023-02-14T05:10:54;102128.41;;;14.83;40.58
39435;BME280;66825;51.880;-0.518;2023-02-14T05:13:19;102121.31;;;14.82;40.42
39435;BME280;66825;51.880;-0.518;2023-02-14T05:15:45;102138.41;;;14.82;40.42
39435;BME280;66825;51.880;-0.518;2023-02-14T05:18:10;102128.63;;;14.81;40.61
39435;BME280;66825;51.880;-0.518;2023-02-14T05:20:36;102110.59;;;14.75;40.66
39435;BME280;66825;51.880;-0.518;2023-02-14T05:23:01;102121.44;;;14.63;40.59
39435;BME280;66825;51.880;-0.518;2023-02-14T05:25:29;102136.19;;;14.79;40.85
39435;BME280;66825;51.880;-0.518;2023-02-14T05:27:54;102139.97;;;14.78;40.50
39435;BME280;66825;51.880;-0.518;2023-02-14T05:30:20;102124.88;;;14.70;40.66
39435;BME280;66825;51.880;-0.518;2023-02-14T05:32:52;102142.69;;;14.78;40.40
39435;BME280;66825;51.880;-0.518;2023-02-14T05:35:18;102045.72;;;14.21;40.62
39435;BME280;66825;51.880;-0.518;2023-02-14T05:37:43;102109.44;;;14.59;40.53
39435;BME280;66825;51.880;-0.518;2023-02-14T05:40:09;102131.38;;;14.69;40.62
39435;BME280;66825;51.880;-0.518;2023-02-14T05:42:38;102151.03;;;14.76;40.85
39435;BME280;66825;51.880;-0.518;2023-02-14T05:45:04;102133.25;;;14.69;40.46
39435;BME280;66825;51.880;-0.518;2023-02-14T05:47:29;102150.25;;;14.76;40.58
39435;BME280;66825;51.880;-0.518;2023-02-14T05:49:55;102154.84;;;14.75;40.80
39435;BME280;66825;51.880;-0.518;2023-02-14T05:52:20;102106.16;;;14.45;40.53
39435;BME280;66825;51.880;-0.518;2023-02-14T05:54:45;102152.34;;;14.74;40.54
39435;BME280;66825;51.880;-0.518;2023-02-14T05:57:11;102067.88;;;14.18;40.64
39435;BME280;66825;51.880;-0.518;2023-02-14T05:59:36;102146.59;;;14.70;40.80
39435;BME280;66825;51.880;-0.518;2023-02-14T06:02:02;102154.50;;;14.72;40.58
39435;BME280;66825;51.880;-0.518;2023-02-14T06:04:27;102159.94;;;14.72;40.31
39435;BME280;66825;51.880;-0.518;2023-02-14T06:06:52;102129.84;;;14.50;40.38
39435;BME280;66825;51.880;-0.518;2023-02-14T06:09:18;102165.34;;;14.72;40.77
39435;BME280;66825;51.880;-0.518;2023-02-14T06:11:44;102163.69;;;14.71;40.36
39435;BME280;66825;51.880;-0.518;2023-02-14T06:14:09;102167.47;;;14.70;40.77
39435;BME280;66825;51.880;-0.518;2023-02-14T06:16:35;102122.66;;;14.43;40.60
39435;BME280;66825;51.880;-0.518;2023-02-14T06:19:00;102182.91;;;14.69;40.58
39435;BME280;66825;51.880;-0.518;2023-02-14T06:21:26;102167.72;;;14.68;40.80
39435;BME280;66825;51.880;-0.518;2023-02-14T06:23:51;102177.72;;;14.68;40.28
39435;BME280;66825;51.880;-0.518;2023-02-14T06:26:17;102175.03;;;14.68;40.39
39435;BME280;66825;51.880;-0.518;2023-02-14T06:28:42;102170.53;;;14.61;40.53
39435;BME280;66825;51.880;-0.518;2023-02-14T06:31:14;102182.34;;;14.67;40.92
39435;BME280;66825;51.880;-0.518;2023-02-14T06:33:40;102184.22;;;14.67;40.54
39435;BME280;66825;51.880;-0.518;2023-02-14T06:36:05;102184.44;;;14.65;40.33
39435;BME280;66825;51.880;-0.518;2023-02-14T06:38:31;102191.75;;;14.65;40.84
39435;BME280;66825;51.880;-0.518;2023-02-14T06:41:05;102163.19;;;14.50;40.69
39435;BME280;66825;51.880;-0.518;2023-02-14T06:43:31;102188.19;;;14.64;40.28
39435;BME280;66825;51.880;-0.518;2023-02-14T06:45:56;102185.13;;;14.60;40.38
39435;BME280;66825;51.880;-0.518;2023-02-14T06:48:22;102190.09;;;14.64;40.54
39435;BME280;66825;51.880;-0.518;2023-02-14T06:50:48;102184.91;;;14.62;40.58
39435;BME280;66825;51.880;-0.518;2023-02-14T06:53:13;102179.47;;;14.62;40.57
39435;BME280;66825;51.880;-0.518;2023-02-14T06:55:39;102181.63;;;14.60;40.50
39435;BME280;66825;51.880;-0.518;2023-02-14T06:58:04;102188.69;;;14.61;40.57
39435;BME280;66825;51.880;-0.518;2023-02-14T07:00:30;102178.91;;;14.60;40.58
39435;BME280;66825;51.880;-0.518;2023-02-14T07:02:56;102191.06;;;14.57;40.50
39435;BME280;66825;51.880;-0.518;2023-02-14T07:05:21;102185.97;;;14.61;40.39
39435;BME280;66825;51.880;-0.518;2023-02-14T07:07:47;102165.81;;;14.57;40.37
39435;BME280;66825;51.880;-0.518;2023-02-14T07:10:13;102167.34;;;14.53;40.84
39435;BME280;66825;51.880;-0.518;2023-02-14T07:12:38;102171.94;;;14.52;40.59
39435;BME280;66825;51.880;-0.518;2023-02-14T07:15:09;102183.47;;;14.59;40.37
39435;BME280;66825;51.880;-0.518;2023-02-14T07:17:35;102185.03;;;14.55;40.54
39435;BME280;66825;51.880;-0.518;2023-02-14T07:20:00;102185.50;;;14.52;40.22
39435;BME280;66825;51.880;-0.518;2023-02-14T07:22:25;102174.53;;;14.47;40.27
39435;BME280;66825;51.880;-0.518;2023-02-14T07:24:51;102180.44;;;14.44;40.45
39435;BME280;66825;51.880;-0.518;2023-02-14T07:27:17;102195.63;;;14.57;40.63
39435;BME280;66825;51.880;-0.518;2023-02-14T07:29:42;102190.47;;;14.55;40.31
39435;BME280;66825;51.880;-0.518;2023-02-14T07:32:08;102081.56;;;13.87;40.66
39435;BME280;66825;51.880;-0.518;2023-02-14T07:34:33;102114.69;;;14.01;40.26
39435;BME280;66825;51.880;-0.518;2023-02-14T07:37:00;102201.66;;;14.59;40.39
39435;BME280;66825;51.880;-0.518;2023-02-14T07:39:26;102206.03;;;14.60;40.45
39435;BME280;66825;51.880;-0.518;2023-02-14T07:41:51;102218.28;;;14.63;40.42
39435;BME280;66825;51.880;-0.518;2023-02-14T07:44:17;102214.06;;;14.67;40.38
39435;BME280;66825;51.880;-0.518;2023-02-14T07:46:43;102197.41;;;14.63;40.48
39435;BME280;66825;51.880;-0.518;2023-02-14T07:49:09;102189.50;;;14.61;40.55
39435;BME280;66825;51.880;-0.518;2023-02-14T07:51:34;102174.66;;;14.52;40.48
39435;BME280;66825;51.880;-0.518;2023-02-14T07:54:00;102200.97;;;14.75;40.53
39435;BME280;66825;51.880;-0.518;2023-02-14T07:56:26;102102.75;;;14.26;40.39
39435;BME280;66825;51.880;-0.518;2023-02-14T07:58:52;102197.16;;;14.88;40.96
39435;BME280;66825;51.880;-0.518;2023-02-14T08:01:17;102005.84;;;13.69;40.58
39435;BME280;66825;51.880;-0.518;2023-02-14T08:03:43;102198.34;;;14.92;40.61
39435;BME280;66825;51.880;-0.518;2023-02-14T08:06:10;102202.81;;;14.99;40.35
39435;BME280;66825;51.880;-0.518;2023-02-14T08:08:36;102213.75;;;15.04;40.44
39435;BME280;66825;51.880;-0.518;2023-02-14T08:11:02;102200.53;;;15.07;40.35
39435;BME280;66825;51.880;-0.518;2023-02-14T08:13:27;102192.63;;;15.06;40.04
39435;BME280;66825;51.880;-0.518;2023-02-14T08:15:53;102209.97;;;15.17;40.38
39435;BME280;66825;51.880;-0.518;2023-02-14T08:18:36;102206.28;;;15.23;40.23
39435;BME280;66825;51.880;-0.518;2023-02-14T08:21:04;102205.31;;;15.29;40.38
39435;BME280;66825;51.880;-0.518;2023-02-14T08:23:30;102220.41;;;15.37;40.33
39435;BME280;66825;51.880;-0.518;2023-02-14T08:25:56;102214.00;;;15.43;40.19
39435;BME280;66825;51.880;-0.518;2023-02-14T08:28:22;102118.31;;;14.95;40.18
39435;BME280;66825;51.880;-0.518;2023-02-14T08:30:48;102210.75;;;15.58;40.39
39435;BME280;66825;51.880;-0.518;2023-02-14T08:33:13;102208.69;;;15.65;40.22
39435;BME280;66825;51.880;-0.518;2023-02-14T08:35:39;102151.59;;;15.31;40.41
39435;BME280;66825;51.880;-0.518;2023-02-14T08:38:04;102211.69;;;15.81;40.31
39435;BME280;66825;51.880;-0.518;2023-02-14T08:40:30;102214.28;;;15.87;40.21
39435;BME280;66825;51.880;-0.518;2023-02-14T08:42:55;102216.03;;;15.94;40.31
39435;BME280;66825;51.880;-0.518;2023-02-14T08:45:21;102219.41;;;16.01;40.09
39435;BME280;66825;51.880;-0.518;2023-02-14T08:47:47;102224.91;;;16.06;40.17
39435;BME280;66825;51.880;-0.518;2023-02-14T08:50:15;102192.38;;;15.94;40.01
39435;BME280;66825;51.880;-0.518;2023-02-14T08:52:41;102218.59;;;16.17;39.84
39435;BME280;66825;51.880;-0.518;2023-02-14T08:55:09;102216.75;;;16.23;40.02
39435;BME280;66825;51.880;-0.518;2023-02-14T08:57:34;102224.19;;;16.28;39.69
39435;BME280;66825;51.880;-0.518;2023-02-14T09:00:00;102215.00;;;16.34;39.58
39435;BME280;66825;51.880;-0.518;2023-02-14T09:02:26;102217.00;;;16.39;39.98
39435;BME280;66825;51.880;-0.518;2023-02-14T09:04:51;102152.84;;;16.03;39.43
39435;BME280;66825;51.880;-0.518;2023-02-14T09:07:17;102224.84;;;16.52;39.72
39435;BME280;66825;51.880;-0.518;2023-02-14T09:09:43;102205.78;;;16.52;39.82
39435;BME280;66825;51.880;-0.518;2023-02-14T09:12:09;102204.19;;;16.56;39.78
39435;BME280;66825;51.880;-0.518;2023-02-14T09:14:40;102215.78;;;16.68;39.76
39435;BME280;66825;51.880;-0.518;2023-02-14T09:17:08;102212.06;;;16.75;39.73
39435;BME280;66825;51.880;-0.518;2023-02-14T09:19:35;102212.97;;;16.80;42.90
39435;BME280;66825;51.880;-0.518;2023-02-14T09:22:03;102203.78;;;16.87;40.30
39435;BME280;66825;51.880;-0.518;2023-02-14T09:24:30;102215.84;;;16.91;40.77
39435;BME280;66825;51.880;-0.518;2023-02-14T09:26:56;102173.97;;;16.75;41.17
39435;BME280;66825;51.880;-0.518;2023-02-14T09:29:23;102208.66;;;17.02;43.34
39435;BME280;66825;51.880;-0.518;2023-02-14T09:31:51;102200.78;;;17.05;41.25
39435;BME280;66825;51.880;-0.518;2023-02-14T09:34:17;102178.38;;;16.98;40.89
39435;BME280;66825;51.880;-0.518;2023-02-14T09:37:01;102192.50;;;17.17;41.02
39435;BME280;66825;51.880;-0.518;2023-02-14T09:39:45;102189.56;;;17.24;41.73
39435;BME280;66825;51.880;-0.518;2023-02-14T09:45:20;102188.06;;;17.38;41.50
39435;BME280;66825;51.880;-0.518;2023-02-14T09:47:51;102181.28;;;17.41;40.81
39435;BME280;66825;51.880;-0.518;2023-02-14T09:50:39;102186.03;;;17.51;39.98
39435;BME280;66825;51.880;-0.518;2023-02-14T09:53:24;102190.47;;;17.57;40.46
39435;BME280;66825;51.880;-0.518;2023-02-14T10:01:14;102162.47;;;17.67;40.53
39435;BME280;66825;51.880;-0.518;2023-02-14T10:06:49;102182.56;;;17.88;40.40
39435;BME280;66825;51.880;-0.518;2023-02-14T10:11:57;102157.16;;;17.82;39.77
39435;BME280;66825;51.880;-0.518;2023-02-14T10:14:28;102122.66;;;17.66;39.90
39435;BME280;66825;51.880;-0.518;2023-02-14T10:19:47;102165.78;;;18.01;40.27
39435;BME280;66825;51.880;-0.518;2023-02-14T10:22:18;102196.44;;;18.19;40.59
39435;BME280;66825;51.880;-0.518;2023-02-14T10:24:56;102196.50;;;18.24;40.02
39435;BME280;66825;51.880;-0.518;2023-02-14T10:27:33;102182.84;;;18.24;39.82
39435;BME280;66825;51.880;-0.518;2023-02-14T10:29:59;102193.81;;;18.34;39.14
39435;BME280;66825;51.880;-0.518;2023-02-14T10:32:36;102204.25;;;18.42;39.71
39435;BME280;66825;51.880;-0.518;2023-02-14T10:35:34;101876.78;;;16.45;39.35
39435;BME280;66825;51.880;-0.518;2023-02-14T10:38:10;102195.00;;;18.49;39.34
39435;BME280;66825;51.880;-0.518;2023-02-14T10:46:25;102167.41;;;18.45;38.80
39435;BME280;66825;51.880;-0.518;2023-02-14T10:49:01;102184.44;;;18.57;38.72
39435;BME280;66825;51.880;-0.518;2023-02-14T10:51:38;102198.06;;;18.57;38.85
39435;BME280;66825;51.880;-0.518;2023-02-14T10:54:17;102173.22;;;18.59;38.72
39435;BME280;66825;51.880;-0.518;2023-02-14T11:01:47;102172.09;;;18.55;38.80
39435;BME280;66825;51.880;-0.518;2023-02-14T11:04:14;102084.00;;;18.06;38.54
39435;BME280;66825;51.880;-0.518;2023-02-14T11:06:41;102073.25;;;17.94;38.70
39435;BME280;66825;51.880;-0.518;2023-02-14T11:09:09;102162.88;;;18.61;38.52
39435;BME280;66825;51.880;-0.518;2023-02-14T11:11:39;102171.31;;;18.60;38.46
39435;BME280;66825;51.880;-0.518;2023-02-14T11:14:24;102167.78;;;18.59;38.44
39435;BME280;66825;51.880;-0.518;2023-02-14T11:16:51;102154.13;;;18.59;38.54
39435;BME280;66825;51.880;-0.518;2023-02-14T11:19:25;102156.28;;;18.57;38.41
39435;BME280;66825;51.880;-0.518;2023-02-14T11:21:52;102150.84;;;18.57;38.50
39435;BME280;66825;51.880;-0.518;2023-02-14T11:24:37;102152.19;;;18.54;38.62
39435;BME280;66825;51.880;-0.518;2023-02-14T11:27:13;102158.22;;;18.56;38.44
39435;BME280;66825;51.880;-0.518;2023-02-14T11:29:43;102138.53;;;18.54;38.47
39435;BME280;66825;51.880;-0.518;2023-02-14T11:32:23;102136.53;;;18.39;38.25
39435;BME280;66825;51.880;-0.518;2023-02-14T11:37:28;102147.81;;;18.53;38.47
39435;BME280;66825;51.880;-0.518;2023-02-14T11:39:57;102141.53;;;18.53;38.68
39435;BME280;66825;51.880;-0.518;2023-02-14T11:42:41;102149.72;;;18.53;38.40
39435;BME280;66825;51.880;-0.518;2023-02-14T11:45:26;102139.06;;;18.51;38.55
39435;BME280;66825;51.880;-0.518;2023-02-14T11:50:35;102132.22;;;18.49;38.56
39435;BME280;66825;51.880;-0.518;2023-02-14T11:53:01;102132.50;;;18.47;38.57
39435;BME280;66825;51.880;-0.518;2023-02-14T11:55:30;102128.41;;;18.45;38.82
39435;BME280;66825;51.880;-0.518;2023-02-14T11:58:01;102140.97;;;18.46;38.67
39435;BME280;66825;51.880;-0.518;2023-02-14T12:00:27;102062.44;;;18.05;38.75
39435;BME280;66825;51.880;-0.518;2023-02-14T12:02:56;102120.22;;;18.45;38.73
39435;BME280;66825;51.880;-0.518;2023-02-14T12:05:31;102085.75;;;18.28;38.67
39435;BME280;66825;51.880;-0.518;2023-02-14T12:08:00;102090.41;;;18.28;38.69
39435;BME280;66825;51.880;-0.518;2023-02-14T12:10:32;102098.34;;;18.39;38.72
39435;BME280;66825;51.880;-0.518;2023-02-14T12:21:26;102084.19;;;18.42;38.44
39435;BME280;66825;51.880;-0.518;2023-02-14T12:24:34;102078.69;;;18.37;38.40
39435;BME280;66825;51.880;-0.518;2023-02-14T12:29:43;102002.63;;;17.93;38.72
39435;BME280;66825;51.880;-0.518;2023-02-14T12:32:22;102077.06;;;18.36;38.76
39435;BME280;66825;51.880;-0.518;2023-02-14T12:34:48;102049.13;;;18.19;38.84
39435;BME280;66825;51.880;-0.518;2023-02-14T12:53:54;102061.19;;;18.28;38.81
39435;BME280;66825;51.880;-0.518;2023-02-14T13:10:27;101984.03;;;17.85;39.27
39435;BME280;66825;51.880;-0.518;2023-02-14T13:13:02;102037.72;;;18.27;39.20
39435;BME280;66825;51.880;-0.518;2023-02-14T13:15:55;102035.00;;;18.27;39.61
39435;BME280;66825;51.880;-0.518;2023-02-14T13:18:38;102033.34;;;18.26;39.18
39435;BME280;66825;51.880;-0.518;2023-02-14T13:21:09;102034.19;;;18.27;39.63
39435;BME280;66825;51.880;-0.518;2023-02-14T13:23:44;101995.06;;;18.05;39.90
39435;BME280;66825;51.880;-0.518;2023-02-14T13:26:20;102023.28;;;18.27;39.89
39435;BME280;66825;51.880;-0.518;2023-02-14T13:29:01;102012.06;;;18.23;39.96
39435;BME280;66825;51.880;-0.518;2023-02-14T13:31:29;102007.72;;;18.27;39.67
39435;BME280;66825;51.880;-0.518;2023-02-14T13:33:59;101989.38;;;18.12;39.59
39435;BME280;66825;51.880;-0.518;2023-02-14T13:36:27;102017.25;;;18.30;39.77
39435;BME280;66825;51.880;-0.518;2023-02-14T13:38:55;101990.22;;;18.18;39.49
39435;BME280;66825;51.880;-0.518;2023-02-14T13:41:22;102009.34;;;18.28;39.74
39435;BME280;66825;51.880;-0.518;2023-02-14T13:44:01;102012.66;;;18.30;39.96
39435;BME280;66825;51.880;-0.518;2023-02-14T13:54:32;101996.84;;;18.37;39.73
39435;BME280;66825;51.880;-0.518;2023-02-14T13:56:58;101997.66;;;18.38;39.96
39435;BME280;66825;51.880;-0.518;2023-02-14T13:59:33;101966.50;;;18.18;40.09
39435;BME280;66825;51.880;-0.518;2023-02-14T14:02:29;101990.84;;;18.40;39.88
39435;BME280;66825;51.880;-0.518;2023-02-14T14:04:55;101984.28;;;18.41;39.55
39435;BME280;66825;51.880;-0.518;2023-02-14T14:07:23;101875.22;;;17.73;39.51
39435;BME280;66825;51.880;-0.518;2023-02-14T14:09:52;101989.19;;;18.39;39.38
39435;BME280;66825;51.880;-0.518;2023-02-14T14:12:35;101871.94;;;17.71;39.54
39435;BME280;66825;51.880;-0.518;2023-02-14T14:20:45;101979.91;;;18.35;39.13
39435;BME280;66825;51.880;-0.518;2023-02-14T14:23:44;101973.91;;;18.33;39.15
39435;BME280;66825;51.880;-0.518;2023-02-14T14:26:30;101966.25;;;18.30;39.14
39435;BME280;66825;51.880;-0.518;2023-02-14T14:28:58;101973.59;;;18.30;39.20
39435;BME280;66825;51.880;-0.518;2023-02-14T14:31:24;101977.44;;;18.29;39.44
39435;BME280;66825;51.880;-0.518;2023-02-14T14:33:59;101961.06;;;18.29;39.24
39435;BME280;66825;51.880;-0.518;2023-02-14T14:36:25;101945.75;;;18.17;39.63
39435;BME280;66825;51.880;-0.518;2023-02-14T14:38:51;101960.81;;;18.30;39.75
39435;BME280;66825;51.880;-0.518;2023-02-14T14:41:26;101961.34;;;18.32;39.74
39435;BME280;66825;51.880;-0.518;2023-02-14T14:43:53;101965.47;;;18.35;39.57
39435;BME280;66825;51.880;-0.518;2023-02-14T14:46:19;101933.47;;;18.20;39.62
39435;BME280;66825;51.880;-0.518;2023-02-14T14:48:47;101958.66;;;18.37;39.47
39435;BME280;66825;51.880;-0.518;2023-02-14T14:51:27;101956.44;;;18.39;39.54
39435;BME280;66825;51.880;-0.518;2023-02-14T14:56:33;101954.28;;;18.41;39.46
39435;BME280;66825;51.880;-0.518;2023-02-14T15:01:51;101940.34;;;18.33;39.21
39435;BME280;66825;51.880;-0.518;2023-02-14T15:04:34;101938.44;;;18.33;39.26
39435;BME280;66825;51.880;-0.518;2023-02-14T15:07:20;101939.00;;;18.40;39.20
39435;BME280;66825;51.880;-0.518;2023-02-14T15:09:51;101932.97;;;18.33;39.09
39435;BME280;66825;51.880;-0.518;2023-02-14T15:12:21;101825.88;;;17.69;39.34
39435;BME280;66825;51.880;-0.518;2023-02-14T15:15:08;101934.38;;;18.41;39.35